createdAt,value
2018-02-01T00:00:33.461Z,99.10
2018-02-01T00:01:33.426Z,99.04
2018-02-01T00:02:33.469Z,98.94
2018-02-01T00:03:33.457Z,98.85
2018-02-01T00:04:33.522Z,98.91
2018-02-01T00:05:33.454Z,98.94
2018-02-01T00:06:33.521Z,98.80
2018-02-01T00:07:33.527Z,98.31
2018-02-01T00:08:33.459Z,97.83
2018-02-01T00:09:33.524Z,97.47
2018-02-01T00:10:33.478Z,97.28
2018-02-01T00:11:33.524Z,97.15
2018-02-01T00:12:33.460Z,97.07
2018-02-01T00:13:33.513Z,96.96
2018-02-01T00:14:33.523Z,96.88
2018-02-01T00:15:33.513Z,96.88
2018-02-01T00:16:33.517Z,96.85
2018-02-01T00:17:33.430Z,96.93
2018-02-01T00:18:33.498Z,96.93
2018-02-01T00:19:33.521Z,96.83
2018-02-01T00:20:33.393Z,96.83
2018-02-01T00:21:33.412Z,96.80
2018-02-01T00:22:33.520Z,96.85
2018-02-01T00:23:33.468Z,97.04
2018-02-01T00:24:33.537Z,97.10
2018-02-01T00:25:33.587Z,97.36
2018-02-01T00:26:33.537Z,97.55
2018-02-01T00:27:33.468Z,97.72
2018-02-01T00:28:33.536Z,97.66
2018-02-01T00:29:33.467Z,97.69
2018-02-01T00:30:33.538Z,97.69
2018-02-01T00:31:33.471Z,97.61
2018-02-01T00:32:33.479Z,97.31
2018-02-01T00:33:33.472Z,97.18
2018-02-01T00:34:33.540Z,97.18
2018-02-01T00:35:33.481Z,97.07
2018-02-01T00:36:33.543Z,97.02
2018-02-01T00:37:33.539Z,97.04
2018-02-01T00:38:33.472Z,96.99
2018-02-01T00:39:33.477Z,97.34
2018-02-01T00:40:33.560Z,97.53
2018-02-01T00:41:33.476Z,97.77
2018-02-01T00:42:33.544Z,97.85
2018-02-01T00:43:33.484Z,97.99
2018-02-01T00:44:33.478Z,98.48
2018-02-01T00:45:33.547Z,98.10
2018-02-01T00:46:33.475Z,97.36
2018-02-01T00:47:33.439Z,97.64
2018-02-01T00:48:33.547Z,98.02
2018-02-01T00:49:33.486Z,98.53
2018-02-01T00:50:33.554Z,98.85
2018-02-01T00:51:33.480Z,99.04
2018-02-01T00:52:33.431Z,98.94
2018-02-01T00:53:33.486Z,99.07
2018-02-01T00:54:33.550Z,99.21
2018-02-01T00:55:33.477Z,99.10
2018-02-01T00:56:33.552Z,98.96
2018-02-01T00:57:33.477Z,99.02
2018-02-01T00:58:33.552Z,99.15
2018-02-01T00:59:33.481Z,99.23
2018-02-01T01:00:33.499Z,99.15
2018-02-01T01:01:33.494Z,99.15
2018-02-01T01:02:33.558Z,98.96
2018-02-01T01:03:33.488Z,98.66
2018-02-01T01:04:33.490Z,98.69
2018-02-01T01:05:33.560Z,98.77
2018-02-01T01:06:33.559Z,98.85
2018-02-01T01:07:33.508Z,98.88
2018-02-01T01:08:33.559Z,98.80
2018-02-01T01:09:33.556Z,98.77
2018-02-01T01:10:33.495Z,98.77
2018-02-01T01:11:33.495Z,98.83
2018-02-01T01:12:33.567Z,98.91
2018-02-01T01:13:33.492Z,99.07
2018-02-01T01:14:33.562Z,99.21
2018-02-01T01:15:33.498Z,99.40
2018-02-01T01:16:33.563Z,99.59
2018-02-01T01:17:33.497Z,99.64
2018-02-01T01:18:33.458Z,99.72
2018-02-01T01:19:33.508Z,99.83
2018-02-01T01:20:33.567Z,99.83
2018-02-01T01:21:33.499Z,99.89
2018-02-01T01:22:33.568Z,99.99
2018-02-01T01:23:33.502Z,99.99
2018-02-01T01:24:33.504Z,99.99
2018-02-01T01:25:33.503Z,99.99
2018-02-01T01:26:33.502Z,99.99
2018-02-01T01:27:33.571Z,99.99
2018-02-01T01:28:33.505Z,99.99
2018-02-01T01:29:33.573Z,99.99
2018-02-01T01:30:33.583Z,99.99
2018-02-01T01:31:33.575Z,99.99
2018-02-01T01:32:33.575Z,99.99
2018-02-01T01:33:33.508Z,99.99
2018-02-01T01:34:33.582Z,99.99
2018-02-01T01:35:33.508Z,99.99
2018-02-01T01:36:33.578Z,99.99
2018-02-01T01:37:33.529Z,99.99
2018-02-01T01:38:33.580Z,99.99
2018-02-01T01:39:33.579Z,99.99
2018-02-01T01:40:33.512Z,99.99
2018-02-01T01:41:33.579Z,99.99
2018-02-01T01:42:33.513Z,99.99
2018-02-01T01:43:33.564Z,99.99
2018-02-01T01:44:33.518Z,99.99
2018-02-01T01:45:33.449Z,99.99
2018-02-01T01:46:33.566Z,99.99
2018-02-01T01:47:33.470Z,99.99
2018-02-01T01:48:33.443Z,99.99
2018-02-01T01:49:33.548Z,99.99
2018-02-01T01:50:33.547Z,99.99
2018-02-01T01:51:33.507Z,99.99
2018-02-01T01:52:33.540Z,99.99
2018-02-01T01:53:33.547Z,99.99
2018-02-01T01:54:33.519Z,99.99
2018-02-01T01:55:33.589Z,99.99
2018-02-01T01:56:33.572Z,99.99
2018-02-01T01:57:33.493Z,99.99
2018-02-01T01:58:33.538Z,99.99
2018-02-01T01:59:33.474Z,99.99
2018-02-01T02:00:33.582Z,99.99
2018-02-01T02:01:33.562Z,99.99
2018-02-01T02:02:33.493Z,99.99
2018-02-01T02:03:33.525Z,99.99
2018-02-01T02:04:33.594Z,99.99
2018-02-01T02:05:33.559Z,99.99
2018-02-01T02:06:33.458Z,99.99
2018-02-01T02:07:33.541Z,99.99
2018-02-01T02:08:33.483Z,99.99
2018-02-01T02:09:33.485Z,99.99
2018-02-01T02:10:33.498Z,99.99
2018-02-01T02:11:33.591Z,99.99
2018-02-01T02:12:33.565Z,99.99
2018-02-01T02:13:33.499Z,99.99
2018-02-01T02:14:33.606Z,99.99
2018-02-01T02:15:33.532Z,99.99
2018-02-01T02:16:33.602Z,99.99
2018-02-01T02:17:33.619Z,99.99
2018-02-01T02:18:33.606Z,99.99
2018-02-01T02:19:33.538Z,99.99
2018-02-01T02:20:33.538Z,99.99
2018-02-01T02:21:33.605Z,99.99
2018-02-01T02:22:33.540Z,99.99
2018-02-01T02:23:33.605Z,99.99
2018-02-01T02:24:33.543Z,99.99
2018-02-01T02:25:33.611Z,99.99
2018-02-01T02:26:33.544Z,99.99
2018-02-01T02:27:33.616Z,99.99
2018-02-01T02:28:33.608Z,99.99
2018-02-01T02:29:33.607Z,99.99
2018-02-01T02:30:33.589Z,99.99
2018-02-01T02:31:33.543Z,99.99
2018-02-01T02:32:33.610Z,99.99
2018-02-01T02:33:33.562Z,99.99
2018-02-01T02:34:33.514Z,99.99
2018-02-01T02:35:33.563Z,99.99
2018-02-01T02:36:33.513Z,99.99
2018-02-01T02:37:33.559Z,99.99
2018-02-01T02:38:33.561Z,99.99
2018-02-01T02:39:33.517Z,99.99
2018-02-01T02:40:33.472Z,99.99
2018-02-01T02:41:33.470Z,99.99
2018-02-01T02:42:33.568Z,99.99
2018-02-01T02:43:33.565Z,99.99
2018-02-01T02:44:33.626Z,99.99
2018-02-01T02:45:33.551Z,99.99
2018-02-01T02:46:33.623Z,99.99
2018-02-01T02:47:33.552Z,99.99
2018-02-01T02:48:33.624Z,99.99
2018-02-01T02:49:33.622Z,99.99
2018-02-01T02:50:33.553Z,99.99
2018-02-01T02:51:33.629Z,99.99
2018-02-01T02:52:33.558Z,99.99
2018-02-01T02:53:33.554Z,99.99
2018-02-01T02:54:33.507Z,99.99
2018-02-01T02:55:33.532Z,99.99
2018-02-01T02:56:33.621Z,99.99
2018-02-01T02:57:33.578Z,99.99
2018-02-01T02:58:33.550Z,99.99
2018-02-01T02:59:33.600Z,99.99
2018-02-01T03:00:33.516Z,99.99
2018-02-01T03:01:33.624Z,99.99
2018-02-01T03:02:33.515Z,99.99
2018-02-01T03:03:33.617Z,99.99
2018-02-01T03:04:33.599Z,99.99
2018-02-01T03:05:33.583Z,99.99
2018-02-01T03:06:33.564Z,99.99
2018-02-01T03:07:33.631Z,99.99
2018-02-01T03:08:33.581Z,99.99
2018-02-01T03:09:33.586Z,99.99
2018-02-01T03:10:33.580Z,99.99
2018-02-01T03:11:33.500Z,99.99
2018-02-01T03:12:33.570Z,99.99
2018-02-01T03:13:33.539Z,99.99
2018-02-01T03:14:33.637Z,99.99
2018-02-01T03:15:33.637Z,99.99
2018-02-01T03:16:33.574Z,99.99
2018-02-01T03:17:33.642Z,99.99
2018-02-01T03:19:33.638Z,99.99
2018-02-01T03:20:33.642Z,99.99
2018-02-01T03:21:33.578Z,99.99
2018-02-01T03:22:33.572Z,99.99
2018-02-01T03:23:33.643Z,99.99
2018-02-01T03:24:33.583Z,99.99
2018-02-01T03:25:33.461Z,99.99
2018-02-01T03:26:33.549Z,99.99
2018-02-01T03:27:33.550Z,99.99
2018-02-01T03:28:33.554Z,99.99
2018-02-01T03:29:33.471Z,99.99
2018-02-01T03:30:33.533Z,99.99
2018-02-01T03:31:33.522Z,99.99
2018-02-01T03:32:33.471Z,99.99
2018-02-01T03:33:33.469Z,99.99
2018-02-01T03:34:33.555Z,99.99
2018-02-01T03:35:33.641Z,99.99
2018-02-01T03:36:33.616Z,99.99
2018-02-01T03:37:33.599Z,99.99
2018-02-01T03:38:33.619Z,99.99
2018-02-01T03:39:33.552Z,99.99
2018-02-01T03:40:33.652Z,99.99
2018-02-01T03:41:33.535Z,99.99
2018-02-01T03:42:33.518Z,99.99
2018-02-01T03:43:33.645Z,99.99
2018-02-01T03:44:33.661Z,99.99
2018-02-01T03:45:33.589Z,99.99
2018-02-01T03:46:33.655Z,99.99
2018-02-01T03:47:33.655Z,99.99
2018-02-01T03:48:33.588Z,99.99
2018-02-01T03:49:33.663Z,99.99
2018-02-01T03:50:33.665Z,99.99
2018-02-01T03:51:33.595Z,99.99
2018-02-01T03:52:33.598Z,99.99
2018-02-01T03:53:33.593Z,99.99
2018-02-01T03:54:33.666Z,99.99
2018-02-01T03:55:33.595Z,99.99
2018-02-01T03:56:33.545Z,99.99
2018-02-01T03:57:33.596Z,99.99
2018-02-01T03:58:33.664Z,99.99
2018-02-01T03:59:33.599Z,99.99
2018-02-01T04:00:33.664Z,99.99
2018-02-01T04:01:33.676Z,99.99
2018-02-01T04:02:33.596Z,99.99
2018-02-01T04:03:33.629Z,99.99
2018-02-01T04:04:33.591Z,99.99
2018-02-01T04:05:33.565Z,99.99
2018-02-01T04:06:33.590Z,99.99
2018-02-01T04:07:33.628Z,99.99
2018-02-01T04:08:33.597Z,99.99
2018-02-01T04:09:33.595Z,99.99
2018-02-01T04:10:33.630Z,99.99
2018-02-01T04:11:33.635Z,99.99
2018-02-01T04:12:33.547Z,99.99
2018-02-01T04:13:33.653Z,99.99
2018-02-01T04:14:33.582Z,99.99
2018-02-01T04:15:33.538Z,99.99
2018-02-01T04:16:33.653Z,99.99
2018-02-01T04:17:33.601Z,99.99
2018-02-01T04:18:33.661Z,99.99
2018-02-01T04:19:33.604Z,99.99
2018-02-01T04:20:33.540Z,99.99
2018-02-01T04:21:33.571Z,99.99
2018-02-01T04:22:33.603Z,99.99
2018-02-01T04:23:33.549Z,99.99
2018-02-01T04:24:33.584Z,99.99
2018-02-01T04:25:33.672Z,99.99
2018-02-01T04:26:33.678Z,99.99
2018-02-01T04:27:33.606Z,99.99
2018-02-01T04:28:33.663Z,99.99
2018-02-01T04:29:33.569Z,99.99
2018-02-01T04:30:33.681Z,99.99
2018-02-01T04:31:33.671Z,99.99
2018-02-01T04:32:33.621Z,99.99
2018-02-01T04:33:33.673Z,99.99
2018-02-01T04:34:33.686Z,99.99
2018-02-01T04:35:33.626Z,99.99
2018-02-01T04:36:33.685Z,99.99
2018-02-01T04:37:33.617Z,99.99
2018-02-01T04:38:33.628Z,99.99
2018-02-01T04:39:33.692Z,99.99
2018-02-01T04:40:33.690Z,99.99
2018-02-01T04:41:33.653Z,99.99
2018-02-01T04:42:33.702Z,99.99
2018-02-01T04:43:33.696Z,99.99
2018-02-01T04:44:33.692Z,99.99
2018-02-01T04:45:33.630Z,99.99
2018-02-01T04:46:33.694Z,99.99
2018-02-01T04:47:33.692Z,99.99
2018-02-01T04:48:33.694Z,99.99
2018-02-01T04:49:33.693Z,99.99
2018-02-01T04:50:33.636Z,99.99
2018-02-01T04:51:33.697Z,99.99
2018-02-01T04:52:33.631Z,99.99
2018-02-01T04:53:33.631Z,99.99
2018-02-01T04:54:33.644Z,99.99
2018-02-01T04:55:33.605Z,99.99
2018-02-01T04:56:33.556Z,99.99
2018-02-01T04:57:33.558Z,99.99
2018-02-01T04:58:33.597Z,99.99
2018-02-01T04:59:33.606Z,99.99
2018-02-01T05:00:33.554Z,99.99
2018-02-01T05:01:33.559Z,99.99
2018-02-01T05:02:33.650Z,99.99
2018-02-01T05:03:33.651Z,99.99
2018-02-01T05:04:33.715Z,99.99
2018-02-01T05:05:33.635Z,99.99
2018-02-01T05:06:33.704Z,99.99
2018-02-01T05:07:33.641Z,99.99
2018-02-01T05:08:33.706Z,99.99
2018-02-01T05:09:33.639Z,99.99
2018-02-01T05:10:33.715Z,99.99
2018-02-01T05:11:33.697Z,99.99
2018-02-01T05:12:33.643Z,99.99
2018-02-01T05:13:33.643Z,99.99
2018-02-01T05:14:33.663Z,99.99
2018-02-01T05:15:33.662Z,99.99
2018-02-01T05:16:33.699Z,99.99
2018-02-01T05:17:33.663Z,99.99
2018-02-01T05:18:33.616Z,99.99
2018-02-01T05:19:33.704Z,99.99
2018-02-01T05:20:33.600Z,99.99
2018-02-01T05:21:33.656Z,99.99
2018-02-01T05:22:33.710Z,99.99
2018-02-01T05:23:33.703Z,99.99
2018-02-01T05:24:33.724Z,99.99
2018-02-01T05:25:33.780Z,99.99
2018-02-01T05:26:33.717Z,99.99
2018-02-01T05:27:33.657Z,99.99
2018-02-01T05:28:33.673Z,99.99
2018-02-01T05:29:33.720Z,99.99
2018-02-01T05:30:33.653Z,99.99
2018-02-01T05:31:33.721Z,99.99
2018-02-01T05:32:33.737Z,99.99
2018-02-01T05:33:33.655Z,99.99
2018-02-01T05:34:33.671Z,99.99
2018-02-01T05:35:33.657Z,99.99
2018-02-01T05:36:33.654Z,99.99
2018-02-01T05:37:33.681Z,99.99
2018-02-01T05:38:33.583Z,99.99
2018-02-01T05:39:33.634Z,99.99
2018-02-01T05:40:33.756Z,99.99
2018-02-01T05:41:33.680Z,99.99
2018-02-01T05:42:33.589Z,99.99
2018-02-01T05:43:33.652Z,99.99
2018-02-01T05:44:33.662Z,99.99
2018-02-01T05:45:33.733Z,99.99
2018-02-01T05:46:33.683Z,99.99
2018-02-01T05:47:33.729Z,99.99
2018-02-01T05:48:33.732Z,99.99
2018-02-01T05:49:33.663Z,99.99
2018-02-01T05:50:33.735Z,99.99
2018-02-01T05:51:33.677Z,99.99
2018-02-01T05:52:33.832Z,99.99
2018-02-01T05:53:33.678Z,99.99
2018-02-01T05:54:33.817Z,99.99
2018-02-01T05:55:33.735Z,99.99
2018-02-01T05:56:33.668Z,99.99
2018-02-01T05:57:33.743Z,99.99
2018-02-01T05:58:33.735Z,99.99
2018-02-01T05:59:33.742Z,99.99
2018-02-01T06:00:33.673Z,99.99
2018-02-01T06:01:33.740Z,99.99
2018-02-01T06:02:33.673Z,99.99
2018-02-01T06:03:33.746Z,99.99
2018-02-01T06:04:33.765Z,99.99
2018-02-01T06:05:33.831Z,99.99
2018-02-01T06:06:33.748Z,99.99
2018-02-01T06:07:33.679Z,99.99
2018-02-01T06:08:33.749Z,99.99
2018-02-01T06:09:33.701Z,99.99
2018-02-01T06:10:33.750Z,99.99
2018-02-01T06:11:33.681Z,99.99
2018-02-01T06:12:33.680Z,99.99
2018-02-01T06:13:33.749Z,99.99
2018-02-01T06:14:33.749Z,99.99
2018-02-01T06:15:33.684Z,99.99
2018-02-01T06:16:33.681Z,99.99
2018-02-01T06:17:33.748Z,99.99
2018-02-01T06:18:33.749Z,99.99
2018-02-01T06:19:33.686Z,99.99
2018-02-01T06:20:33.749Z,99.99
2018-02-01T06:21:33.690Z,99.99
2018-02-01T06:22:33.715Z,99.99
2018-02-01T06:23:33.752Z,99.99
2018-02-01T06:24:33.744Z,99.99
2018-02-01T06:25:33.742Z,99.99
2018-02-01T06:26:33.652Z,99.99
2018-02-01T06:27:33.699Z,99.99
2018-02-01T06:28:33.701Z,99.99
2018-02-01T06:29:33.622Z,99.99
2018-02-01T06:30:33.712Z,99.99
2018-02-01T06:31:33.742Z,99.99
2018-02-01T06:32:33.708Z,99.99
2018-02-01T06:33:33.660Z,99.99
2018-02-01T06:34:33.759Z,99.99
2018-02-01T06:35:33.692Z,99.99
2018-02-01T06:36:33.757Z,99.99
2018-02-01T06:37:33.699Z,99.99
2018-02-01T06:38:33.697Z,99.99
2018-02-01T06:39:33.763Z,99.99
2018-02-01T06:40:33.695Z,99.99
2018-02-01T06:41:33.696Z,99.99
2018-02-01T06:42:33.763Z,99.99
2018-02-01T06:43:33.763Z,99.99
2018-02-01T06:44:33.650Z,99.99
2018-02-01T06:45:33.729Z,99.99
2018-02-01T06:46:33.675Z,99.99
2018-02-01T06:47:33.699Z,99.99
2018-02-01T06:48:33.675Z,99.99
2018-02-01T06:49:33.684Z,99.99
2018-02-01T06:50:33.666Z,99.99
2018-02-01T06:51:33.762Z,99.99
2018-02-01T06:52:33.700Z,99.99
2018-02-01T06:53:33.766Z,99.99
2018-02-01T06:54:33.696Z,99.99
2018-02-01T06:55:33.723Z,99.99
2018-02-01T06:56:33.661Z,99.99
2018-02-01T06:57:33.674Z,99.99
2018-02-01T06:58:33.698Z,99.99
2018-02-01T06:59:33.733Z,99.99
2018-02-01T07:00:33.695Z,99.99
2018-02-01T07:01:33.703Z,99.99
2018-02-01T07:02:33.694Z,99.99
2018-02-01T07:03:33.730Z,99.99
2018-02-01T07:04:33.807Z,99.99
2018-02-01T07:05:33.708Z,99.99
2018-02-01T07:06:33.787Z,99.99
2018-02-01T07:08:33.716Z,99.99
2018-02-01T07:09:33.785Z,99.99
2018-02-01T07:10:33.716Z,99.99
2018-02-01T07:11:33.784Z,99.99
2018-02-01T07:12:33.783Z,99.99
2018-02-01T07:13:33.787Z,99.99
2018-02-01T07:14:33.680Z,99.99
2018-02-01T07:15:33.654Z,99.99
2018-02-01T07:16:33.658Z,99.99
2018-02-01T07:17:33.762Z,99.99
2018-02-01T07:18:33.727Z,99.99
2018-02-01T07:19:33.745Z,99.99
2018-02-01T07:20:33.647Z,99.99
2018-02-01T07:21:33.682Z,99.99
2018-02-01T07:22:33.768Z,99.99
2018-02-01T07:23:33.749Z,99.99
2018-02-01T07:24:33.745Z,99.99
2018-02-01T07:25:33.712Z,99.99
2018-02-01T07:26:33.750Z,99.99
2018-02-01T07:27:33.752Z,99.99
2018-02-01T07:28:33.682Z,99.99
2018-02-01T07:29:33.649Z,99.99
2018-02-01T07:30:33.712Z,99.99
2018-02-01T07:31:33.704Z,99.99
2018-02-01T07:32:33.704Z,99.99
2018-02-01T07:33:33.685Z,99.99
2018-02-01T07:34:33.737Z,99.99
2018-02-01T07:35:33.793Z,99.99
2018-02-01T07:36:33.794Z,99.99
2018-02-01T07:37:33.720Z,99.99
2018-02-01T07:38:33.817Z,99.99
2018-02-01T07:39:33.724Z,99.99
2018-02-01T07:40:33.796Z,99.99
2018-02-01T07:41:33.797Z,99.99
2018-02-01T07:42:33.728Z,99.99
2018-02-01T07:43:33.798Z,99.99
2018-02-01T07:45:33.802Z,99.99
2018-02-01T07:46:33.800Z,99.99
2018-02-01T07:47:33.735Z,99.99
2018-02-01T07:48:33.801Z,99.99
2018-02-01T07:49:33.737Z,99.99
2018-02-01T07:50:33.734Z,99.99
2018-02-01T07:51:33.809Z,99.99
2018-02-01T07:52:33.736Z,99.99
2018-02-01T07:53:33.735Z,99.99
2018-02-01T07:54:33.804Z,99.99
2018-02-01T07:55:33.717Z,99.99
2018-02-01T07:56:33.767Z,99.99
2018-02-01T07:57:33.718Z,99.99
2018-02-01T07:58:33.756Z,99.99
2018-02-01T07:59:33.766Z,99.99
2018-02-01T08:00:33.737Z,99.99
2018-02-01T08:01:33.756Z,99.99
2018-02-01T08:02:33.794Z,99.99
2018-02-01T08:03:33.763Z,99.99
2018-02-01T08:04:33.763Z,99.99
2018-02-01T08:05:33.812Z,99.99
2018-02-01T08:06:33.747Z,99.99
2018-02-01T08:07:33.784Z,99.99
2018-02-01T08:08:33.816Z,99.99
2018-02-01T08:09:33.792Z,99.99
2018-02-01T08:10:33.816Z,99.99
2018-02-01T08:11:33.746Z,99.99
2018-02-01T08:12:33.816Z,99.99
2018-02-01T08:13:33.749Z,99.99
2018-02-01T08:14:33.818Z,99.99
2018-02-01T08:15:33.744Z,99.99
2018-02-01T08:16:33.768Z,99.99
2018-02-01T08:17:33.770Z,99.75
2018-02-01T08:18:33.843Z,99.53
2018-02-01T08:19:33.701Z,99.29
2018-02-01T08:20:33.820Z,99.13
2018-02-01T08:21:33.704Z,99.07
2018-02-01T08:22:33.749Z,98.91
2018-02-01T08:23:33.748Z,98.77
2018-02-01T08:24:33.815Z,98.72
2018-02-01T08:25:33.771Z,98.59
2018-02-01T08:26:33.688Z,98.53
2018-02-01T08:27:33.789Z,98.34
2018-02-01T08:28:33.754Z,98.26
2018-02-01T08:29:33.756Z,98.12
2018-02-01T08:30:33.787Z,97.88
2018-02-01T08:31:33.806Z,97.64
2018-02-01T08:32:33.685Z,97.50
2018-02-01T08:33:33.776Z,97.31
2018-02-01T08:34:33.701Z,96.96
2018-02-01T08:35:33.830Z,96.80
2018-02-01T08:36:33.759Z,96.50
2018-02-01T08:37:33.831Z,96.34
2018-02-01T08:38:33.761Z,96.28
2018-02-01T08:39:33.834Z,96.23
2018-02-01T08:40:33.761Z,96.07
2018-02-01T08:41:33.835Z,95.98
2018-02-01T08:42:33.767Z,95.91
2018-02-01T08:43:33.836Z,95.47
2018-02-01T08:44:33.771Z,94.86
2018-02-01T08:45:33.769Z,94.69
2018-02-01T08:46:33.838Z,94.59
2018-02-01T08:47:33.764Z,94.15
2018-02-01T08:48:33.838Z,93.70
2018-02-01T08:49:33.768Z,93.45
2018-02-01T08:50:33.840Z,93.18
2018-02-01T08:51:33.766Z,93.02
2018-02-01T08:52:33.774Z,92.84
2018-02-01T08:53:33.841Z,92.30
2018-02-01T08:54:33.768Z,92.40
2018-02-01T08:55:33.747Z,92.43
2018-02-01T08:56:33.703Z,92.35
2018-02-01T08:57:33.729Z,91.60
2018-02-01T08:58:33.726Z,91.17
2018-02-01T08:59:33.773Z,91.01
2018-02-01T09:00:33.792Z,91.17
2018-02-01T09:01:33.741Z,90.90
2018-02-01T09:02:33.718Z,90.85
2018-02-01T09:03:33.751Z,90.53
2018-02-01T09:04:33.791Z,90.74
2018-02-01T09:05:33.778Z,89.91
2018-02-01T09:06:33.850Z,89.03
2018-02-01T09:07:33.782Z,88.25
2018-02-01T09:08:33.850Z,87.74
2018-02-01T09:09:33.821Z,87.24
2018-02-01T09:10:33.851Z,87.24
2018-02-01T09:11:33.797Z,86.57
2018-02-01T09:12:33.781Z,86.52
2018-02-01T09:13:33.855Z,86.04
2018-02-01T09:14:33.807Z,86.65
2018-02-01T09:15:33.832Z,85.08
2018-02-01T09:16:33.801Z,84.07
2018-02-01T09:17:33.781Z,83.04
2018-02-01T09:18:33.723Z,83.04
2018-02-01T09:19:33.765Z,83.22
2018-02-01T09:20:33.786Z,82.32
2018-02-01T09:21:33.791Z,83.12
2018-02-01T09:22:33.821Z,82.03
2018-02-01T09:23:33.714Z,80.97
2018-02-01T09:24:33.822Z,81.66
2018-02-01T09:25:33.794Z,81.79
2018-02-01T09:26:33.786Z,81.10
2018-02-01T09:27:33.860Z,80.73
2018-02-01T09:28:33.790Z,77.47
2018-02-01T09:29:33.862Z,78.12
2018-02-01T09:30:33.792Z,80.84
2018-02-01T09:31:33.865Z,79.55
2018-02-01T09:33:33.864Z,78.33
2018-02-01T09:34:33.794Z,79.20
2018-02-01T09:35:33.865Z,79.23
2018-02-01T09:36:33.795Z,75.34
2018-02-01T09:37:33.866Z,76.46
2018-02-01T09:38:33.805Z,75.49
2018-02-01T09:39:33.869Z,72.93
2018-02-01T09:40:33.796Z,74.97
2018-02-01T09:41:33.887Z,75.70
2018-02-01T09:42:33.800Z,77.28
2018-02-01T09:43:33.872Z,76.36
2018-02-01T09:44:33.799Z,75.39
2018-02-01T09:45:33.955Z,75.96
2018-02-01T09:46:33.873Z,75.60
2018-02-01T09:47:33.803Z,75.92
2018-02-01T09:48:33.758Z,76.18
2018-02-01T09:49:33.809Z,75.76
2018-02-01T09:50:33.874Z,73.66
2018-02-01T09:51:33.803Z,72.36
2018-02-01T09:52:33.875Z,75.07
2018-02-01T09:53:33.878Z,75.94
2018-02-01T09:54:34.034Z,75.29
2018-02-01T09:55:33.772Z,73.89
2018-02-01T09:56:33.765Z,72.53
2018-02-01T09:57:33.766Z,74.42
2018-02-01T09:58:33.806Z,74.34
2018-02-01T09:59:33.714Z,71.44
2018-02-01T10:00:33.731Z,72.07
2018-02-01T10:01:33.710Z,72.59
2018-02-01T10:02:33.755Z,74.21
2018-02-01T10:03:33.711Z,72.30
2018-02-01T10:04:33.712Z,74.03
2018-02-01T10:05:33.886Z,73.69
2018-02-01T10:06:33.811Z,72.20
2018-02-01T10:07:33.812Z,72.61
2018-02-01T10:08:33.885Z,71.73
2018-02-01T10:09:33.815Z,72.14
2018-02-01T10:10:33.890Z,70.74
2018-02-01T10:11:33.821Z,71.44
2018-02-01T10:12:33.894Z,69.41
2018-02-01T10:13:33.826Z,70.87
2018-02-01T10:14:33.974Z,71.65
2018-02-01T10:15:33.890Z,71.44
2018-02-01T10:16:33.818Z,70.17
2018-02-01T10:17:33.894Z,69.75
2018-02-01T10:18:33.835Z,71.21
2018-02-01T10:19:33.897Z,70.66
2018-02-01T10:20:33.832Z,70.45
2018-02-01T10:21:33.893Z,70.04
2018-02-01T10:22:33.825Z,70.09
2018-02-01T10:23:34.099Z,71.86
2018-02-01T10:24:33.898Z,71.31
2018-02-01T10:25:33.856Z,71.78
2018-02-01T10:26:33.871Z,71.73
2018-02-01T10:27:33.898Z,69.85
2018-02-01T10:28:33.829Z,71.15
2018-02-01T10:29:33.897Z,70.82
2018-02-01T10:30:33.826Z,71.75
2018-02-01T10:31:33.899Z,70.29
2018-02-01T10:33:33.902Z,70.68
2018-02-01T10:34:33.830Z,70.74
2018-02-01T10:35:33.904Z,70.74
2018-02-01T10:36:33.830Z,69.85
2018-02-01T10:37:33.905Z,70.92
2018-02-01T10:38:33.833Z,69.72
2018-02-01T10:39:33.904Z,68.32
2018-02-01T10:40:33.833Z,69.12
2018-02-01T10:41:33.904Z,71.54
2018-02-01T10:42:33.834Z,69.67
2018-02-01T10:43:33.907Z,69.30
2018-02-01T10:44:33.838Z,69.80
2018-02-01T10:45:33.907Z,69.80
2018-02-01T10:46:33.836Z,68.04
2018-02-01T10:47:33.878Z,68.76
2018-02-01T10:48:33.909Z,69.15
2018-02-01T10:49:33.837Z,67.91
2018-02-01T10:50:33.911Z,68.27
2018-02-01T10:51:33.844Z,67.85
2018-02-01T10:52:33.912Z,67.77
2018-02-01T10:53:33.838Z,67.91
2018-02-01T10:54:33.912Z,67.31
2018-02-01T10:55:33.881Z,67.10
2018-02-01T10:56:33.879Z,67.83
2018-02-01T10:57:33.900Z,68.24
2018-02-01T10:58:33.876Z,68.35
2018-02-01T10:59:33.795Z,69.41
2018-02-01T11:00:33.823Z,69.23
2018-02-01T11:01:33.918Z,67.20
2018-02-01T11:02:33.799Z,67.05
2018-02-01T11:03:33.832Z,68.14
2018-02-01T11:04:33.832Z,67.57
2018-02-01T11:05:33.849Z,67.20
2018-02-01T11:06:33.924Z,68.63
2018-02-01T11:07:33.853Z,67.10
2018-02-01T11:08:33.928Z,66.56
2018-02-01T11:09:33.850Z,67.44
2018-02-01T11:10:33.929Z,66.33
2018-02-01T11:11:33.851Z,66.87
2018-02-01T11:12:33.925Z,64.90
2018-02-01T11:13:33.856Z,64.75
2018-02-01T11:14:33.930Z,66.74
2018-02-01T11:15:33.870Z,66.97
2018-02-01T11:16:33.825Z,67.46
2018-02-01T11:17:33.807Z,66.12
2018-02-01T11:18:33.850Z,67.00
2018-02-01T11:19:33.879Z,66.66
2018-02-01T11:20:33.916Z,66.87
2018-02-01T11:21:33.897Z,68.32
2018-02-01T11:22:33.880Z,68.58
2018-02-01T11:23:33.918Z,67.02
2018-02-01T11:24:33.835Z,66.87
2018-02-01T11:25:33.840Z,65.39
2018-02-01T11:26:33.880Z,66.17
2018-02-01T11:27:33.948Z,65.70
2018-02-01T11:28:33.878Z,65.83
2018-02-01T11:29:33.872Z,67.05
2018-02-01T11:30:33.863Z,66.64
2018-02-01T11:31:33.877Z,67.96
2018-02-01T11:32:33.807Z,69.15
2018-02-01T11:33:33.825Z,69.67
2018-02-01T11:34:33.843Z,69.59
2018-02-01T11:35:33.939Z,70.95
2018-02-01T11:36:33.868Z,71.57
2018-02-01T11:37:33.940Z,71.15
2018-02-01T11:38:33.875Z,69.88
2018-02-01T11:39:33.941Z,70.56
2018-02-01T11:40:33.874Z,70.48
2018-02-01T11:41:33.871Z,69.85
2018-02-01T11:42:33.943Z,70.24
2018-02-01T11:43:33.875Z,71.52
2018-02-01T11:44:33.978Z,70.64
2018-02-01T11:45:33.890Z,71.18
2018-02-01T11:46:33.846Z,72.14
2018-02-01T11:47:33.903Z,73.37
2018-02-01T11:48:33.945Z,71.94
2018-02-01T11:49:33.890Z,72.09
2018-02-01T11:50:33.946Z,73.37
2018-02-01T11:51:33.935Z,73.14
2018-02-01T11:52:33.861Z,72.30
2018-02-01T11:53:33.832Z,72.33
2018-02-01T11:54:33.913Z,71.99
2018-02-01T11:55:33.908Z,71.81
2018-02-01T11:56:33.952Z,73.06
2018-02-01T11:57:33.880Z,72.51
2018-02-01T11:58:33.987Z,73.89
2018-02-01T11:59:33.907Z,71.54
2018-02-01T12:00:33.953Z,70.24
2018-02-01T12:01:33.884Z,68.50
2018-02-01T12:02:33.955Z,68.87
2018-02-01T12:03:33.895Z,69.12
2018-02-01T12:04:33.962Z,67.67
2018-02-01T12:05:33.879Z,66.37
2018-02-01T12:06:33.885Z,67.05
2018-02-01T12:07:33.955Z,66.74
2018-02-01T12:08:33.887Z,67.10
2018-02-01T12:09:33.957Z,68.74
2018-02-01T12:10:33.904Z,69.93
2018-02-01T12:11:33.959Z,66.79
2018-02-01T12:12:33.891Z,67.10
2018-02-01T12:13:33.963Z,69.57
2018-02-01T12:14:33.890Z,68.84
2018-02-01T12:15:33.961Z,68.76
2018-02-01T12:16:33.911Z,68.71
2018-02-01T12:17:33.864Z,69.85
2018-02-01T12:18:33.931Z,69.59
2018-02-01T12:19:33.845Z,71.62
2018-02-01T12:20:33.926Z,70.66
2018-02-01T12:21:33.929Z,71.10
2018-02-01T12:22:33.893Z,71.42
2018-02-01T12:23:33.967Z,72.14
2018-02-01T12:24:33.959Z,72.04
2018-02-01T12:25:33.969Z,72.85
2018-02-01T12:26:33.908Z,71.83
2018-02-01T12:27:33.970Z,70.17
2018-02-01T12:28:33.902Z,70.29
2018-02-01T12:29:33.971Z,70.11
2018-02-01T12:30:33.904Z,70.50
2018-02-01T12:31:33.981Z,70.56
2018-02-01T12:32:33.905Z,69.77
2018-02-01T12:33:33.973Z,69.85
2018-02-01T12:34:33.975Z,68.63
2018-02-01T12:35:33.902Z,68.06
2018-02-01T12:36:34.028Z,66.79
2018-02-01T12:37:33.902Z,64.26
2018-02-01T12:38:33.979Z,65.29
2018-02-01T12:39:33.905Z,65.14
2018-02-01T12:40:33.979Z,64.31
2018-02-01T12:41:33.901Z,64.52
2018-02-01T12:42:33.910Z,65.73
2018-02-01T12:43:33.979Z,67.23
2018-02-01T12:44:33.911Z,67.28
2018-02-01T12:45:33.982Z,65.58
2018-02-01T12:46:33.935Z,64.80
2018-02-01T12:47:33.980Z,65.50
2018-02-01T12:48:33.913Z,66.30
2018-02-01T12:49:33.984Z,68.55
2018-02-01T12:50:33.913Z,68.11
2018-02-01T12:51:33.985Z,68.94
2018-02-01T12:52:33.919Z,67.93
2018-02-01T12:53:33.987Z,68.84
2018-02-01T12:54:33.916Z,68.24
2018-02-01T12:55:33.876Z,68.91
2018-02-01T12:56:33.888Z,68.53
2018-02-01T12:57:33.805Z,68.14